Weather observations for the past three days for
San Juan, Luis Munoz Marin International Airport
Imperial (Metric)
Date Time (ast) Wind (mph) Vis. (mi.) Weather Sky Cond. Temperature (ºF) Relative Humidity Wind Chill (°F) Heat Index (°F) Pressure Precipitation (in)
Air Dwpt 6 hour altimeter (in) sea level (mb) 1 hr 3 hr 6 hr
Max. Min.
02 21:56 E 6 10.00 A Few Clouds FEW033 80.6 71.6 74% 85 30.04 0.0
02 20:56 E 9 10.00 A Few Clouds FEW033 FEW055 80.6 71.6 74% 85 30.02 0.0
02 19:56 E 9 10.00 A Few Clouds FEW033 80.6 71.6 74% 85 30 0.0
02 18:56 E 10 10.00 Partly Cloudy SCT033 82.4 71.6 70% 87 29.98 0.0
02 17:56 E 13 10.00 Partly Cloudy SCT040 84.2 71.6 66% 90 29.97 0.0
02 16:56 E 14 10.00 Partly Cloudy SCT042 SCT050 84.2 69.8 62% 88 29.94 0.0
02 15:56 SE 8 10.00 Partly Cloudy SCT047 89.6 69.8 52% 95 29.94 0.0
02 14:56 E 12 G 23 10.00 Partly Cloudy SCT042 SCT055 87.8 69.8 55% 93 29.95 0.0
02 13:56 E 20 G 31 10.00 Partly Cloudy FEW032 SCT050 89.1 72 89.1 81 57% 96 29.97 1014.6
02 12:56 NE 18 10.00 Partly Cloudy FEW035 SCT060 87.8 75.2 66% 98 29.99 0.0
02 11:56 NE 18 10.00 Partly Cloudy FEW038 SCT055 87.8 73.4 62% 96 30.01 0.0
02 10:56 NE 14 10.00 Partly Cloudy FEW027 SCT060 87.8 73.4 62% 96 30.03 0.0
02 09:56 E 13 10.00 Partly Cloudy FEW027 SCT055 84 73 70% 90 30.03 1016.8
02 08:56 E 13 10.00 Partly Cloudy FEW033 SCT060 SCT085 82.4 71.6 70% 87 30.02 0.0
02 07:56 E 10 10.00 Partly Cloudy FEW029 SCT085 80.6 73.4 79% 85 30.01 0.0
02 06:56 SE 5 10.00 Partly Cloudy FEW030 SCT065 78.1 71.1 79% 80 29.99 1015.4
02 05:56 SE 3 10.00 Fair CLR 75.2 69.8 83% 75 29.97 0.0
02 03:56 SE 3 10.00 Fair CLR 75.2 69.8 83% 75 29.94 0.0
02 02:56 SE 3 10.00 A Few Clouds FEW033 77 71.6 83% 78 29.95 0.0
02 01:56 SE 3 10.00 A Few Clouds FEW035 77 71.6 83% 78 29.95 0.0
02 00:56 SE 3 10.00 A Few Clouds FEW035 78.1 71.1 79% 80 29.96 1014.5
01 23:56 Calm 10.00 A Few Clouds FEW035 78.8 71.6 79% 82 29.99 0.0
01 22:56 E 6 10.00 A Few Clouds FEW040 79 73 82% 82 29.98 1015.2
01 21:56 E 5 10.00 A Few Clouds FEW043 FEW060 78.8 73.4 84% 82 29.97 0.0
01 20:56 E 9 10.00 A Few Clouds FEW046 FEW080 78.8 73.4 84% 82 29.96 0.0
01 19:56 E 9 10.00 A Few Clouds FEW040 FEW080 80.6 73.4 79% 85 29.95 0.0
01 18:56 E 12 10.00 Partly Cloudy FEW034 FEW047 SCT070 80.6 73.4 79% 85 29.92 0.0
01 17:56 E 18 10.00 Partly Cloudy FEW034 SCT041 SCT070 82.4 73.4 74% 88 29.91 0.0
01 16:56 E 18 10.00 Partly Cloudy FEW028 FEW043 SCT070 82.4 75.2 79% 89 29.91 0.0
01 15:56 E 17 10.00 Partly Cloudy FEW028 SCT043 SCT070 84 73.9 72% 91 29.9 1012.3
01 14:56 NE 20 10.00 Partly Cloudy FEW039 SCT100 87.8 73.4 62% 96 29.91 0.0
01 13:56 NE 17 10.00 Partly Cloudy FEW029 SCT080 87.8 73.4 62% 96 29.93 0.0
01 12:56 NE 16 G 22 10.00 Partly Cloudy FEW026 SCT095 86 75.2 70% 95 29.95 0.0
01 11:56 NE 9 10.00 Partly Cloudy FEW023 SCT095 84.2 73.4 70% 91 29.97 0.0
01 10:56 E 12 10.00 Partly Cloudy FEW028 SCT095 84.2 73.4 70% 91 29.98 0.0
01 09:56 N 8 10.00 Partly Cloudy FEW033 FEW080 SCT095 82.4 71.6 70% 87 29.98 0.0
01 08:56 Calm 10.00 Partly Cloudy FEW030 FEW075 SCT090 82.4 71.6 70% 87 29.97 0.0
01 07:56 S 5 10.00 Partly Cloudy FEW030 FEW075 SCT090 78.8 73.4 84% 82 29.94 0.0
01 06:56 SE 3 10.00 Partly Cloudy FEW030 SCT075 77 73.9 90% 78 29.93 1013.4
01 05:56 S 3 10.00 Partly Cloudy SCT033 SCT070 77 73.4 89% 78 29.91 0.0
01 04:56 Calm 10.00 A Few Clouds FEW060 77 73.4 89% 78 29.9 0.0
01 03:56 Calm 10.00 A Few Clouds FEW060 77 75.2 94% 78 29.89 0.0
01 02:56 Calm 10.00 A Few Clouds FEW045 77 75 94% 78 29.89 1012.1
01 01:56 Calm 10.00 A Few Clouds FEW045 78.1 75 78.1 77 90% 81 29.91 1012.5 0.09
01 00:56 Calm 10.00 A Few Clouds FEW028 FEW080 78.8 75.2 89% 82 29.93 0.0
30 23:56 Calm 10.00 A Few Clouds FEW028 FEW080 78.8 75.2 89% 82 29.95 0.0
30 22:56 Vrbl 5 10.00 Partly Cloudy FEW028 SCT080 78.8 73.4 84% 82 29.97 0.0
30 21:56 Calm 10.00 Partly Cloudy FEW060 SCT100 78.8 75.2 89% 82 29.95 0.0
30 20:56 Calm 10.00 Light Rain FEW050 BKN100 78.8 75.2 89% 82 29.93 0.0
30 19:56 SE 5 9.00 Light Rain FEW026 BKN100 78.1 75 84 77 90% 81 29.92 1013.1 0.09 0.25
30 18:56 E 5 9.00 Light Rain FEW026 SCT050 BKN080 78.8 75.2 89% 82 29.91 0.0
30 17:56 E 7 8.00 Light Rain SCT026 SCT050 BKN080 78.8 75.2 89% 82 29.88 0.0
30 16:56 E 9 10.00 Light Rain SCT039 SCT055 BKN075 80.6 75.2 84% 86 29.86 0.0
30 15:56 NE 14 10.00 Light Rain SCT039 BKN055 80.6 73.4 79% 85 29.85 0.0
30 14:56 E 16 10.00 Mostly Cloudy FEW029 SCT039 BKN060 82.9 73 72% 89 29.87 1011.3
30 13:56 NE 12 10.00 Overcast SCT029 BKN036 OVC060 84 73.9 89.1 79 72% 91 29.88 1011.5
30 12:56 E 17 10.00 Mostly Cloudy SCT033 BKN090 84 73.9 72% 91 29.89 1011.9
30 11:56 E 10 10.00 Partly Cloudy FEW028 SCT040 SCT085 87.1 73 63% 95 29.9 1012.2
30 10:56 SE 6 10.00 Partly Cloudy FEW033 SCT080 86 70 59% 91 29.92 1012.9
30 09:56 E 6 10.00 Partly Cloudy FEW025 SCT075 84.2 71.6 66% 90 29.93 0.0
30 08:56 E 5 10.00 Mostly Cloudy FEW028 BKN080 80.6 71.6 74% 85 29.93 0.0
30 07:56 Calm 10.00 Mostly Cloudy FEW026 BKN080 78.8 73.4 84% 82 29.92 0.0
30 06:56 Calm 10.00 Mostly Cloudy FEW026 BKN080 77 73.4 89% 78 29.9 0.0
30 05:56 Calm 10.00 Mostly Cloudy FEW024 BKN085 77 73.4 89% 78 29.89 0.0
30 04:56 SE 3 10.00 Mostly Cloudy FEW035 BKN085 77 73.4 89% 78 29.88 0.0
30 03:56 Calm 10.00 Mostly Cloudy BKN085 77 73 88% 78 29.87 1011.2
30 02:56 Calm 10.00 Mostly Cloudy FEW025 BKN085 78.8 73.4 84% 82 29.87 0.0
30 01:56 Calm 10.00 Mostly Cloudy FEW020 SCT060 BKN085 78.8 73.4 84% 82 29.9 0.0
30 00:56 Calm 10.00 Mostly Cloudy FEW019 SCT060 BKN085 79 73.9 85% 83 29.92 1013.1
29 23:56 Calm 10.00 Mostly Cloudy FEW040 SCT070 BKN085 78.8 73.4 84% 82 29.93 0.0
29 22:56 Calm 10.00 Mostly Cloudy FEW032 SCT055 BKN085 78.8 73.4 84% 82 29.95 0.0
Date Time (ast) Wind (mph) Vis. (mi.) Weather Sky Cond. Air Dwpt Max. Min. Relative Humidity Wind Chill (°F) Heat Index (°F) altimeter (in) sea level (mb) 1 hr 3 hr 6 hr
6 hour
Temperature (ºF) Pressure Precipitation (in)